Time;durP1;ratioP1;P1;durP2;ratioP2;P2;SDS_P1;SDS_P2;PMS_P1;PMS_P2;Temp;Humidity;BMP_temperature;BMP_pressure;BME280_temperature;BME280_humidity;BME280_pressure;Samples;Min_cycle;Max_cycle;Signal;HPM_P1;HPM_P2
2020/12/02 00:00:12;;;;;;;13.85;8.98;;;8.30;84.60;;;;;;5155587;27;20027;-69
2020/12/02 00:02:49;;;;;;;14.60;9.50;;;8.30;84.50;;;;;;5136680;27;20038;-69
2020/12/02 00:05:17;;;;;;;13.75;9.10;;;8.30;84.50;;;;;;5137189;27;20110;-69
2020/12/02 00:07:46;;;;;;;15.00;9.57;;;8.30;84.50;;;;;;5155292;27;20031;-69
2020/12/02 00:10:11;;;;;;;15.13;8.48;;;8.30;84.50;;;;;;5136599;27;20027;-69
2020/12/02 00:12:37;;;;;;;12.85;8.65;;;8.30;84.60;;;;;;5136414;27;20049;-69
2020/12/02 00:15:05;;;;;;;15.75;10.23;;;8.40;84.60;;;;;;5136585;27;20030;-69
2020/12/02 00:17:31;;;;;;;14.45;10.07;;;8.40;84.50;;;;;;5155026;27;20209;-69
2020/12/02 00:19:57;;;;;;;16.67;9.55;;;8.30;84.50;;;;;;5155421;27;20050;-69
2020/12/02 00:22:23;;;;;;;13.32;8.60;;;8.30;84.60;;;;;;5154825;27;20039;-69
2020/12/02 00:24:50;;;;;;;14.65;9.45;;;8.40;84.70;;;;;;5155057;27;20027;-69
2020/12/02 00:27:25;;;;;;;12.10;8.50;;;8.40;84.50;;;;;;5136462;27;20030;-69
2020/12/02 00:29:51;;;;;;;12.70;9.13;;;8.30;84.60;;;;;;5154998;27;20054;-69
2020/12/02 00:32:37;;;;;;;14.30;9.27;;;8.30;84.60;;;;;;5136310;27;20022;-69
2020/12/02 00:35:10;;;;;;;17.33;9.82;;;8.30;84.70;;;;;;5155100;27;20057;-69
2020/12/02 00:37:35;;;;;;;15.35;8.43;;;8.30;84.70;;;;;;5154810;27;20087;-69
2020/12/02 00:40:01;;;;;;;14.20;9.02;;;8.30;84.70;;;;;;5154883;27;20477;-69
2020/12/02 00:42:27;;;;;;;13.48;8.48;;;8.40;84.80;;;;;;5135892;27;20496;-69
2020/12/02 00:44:52;;;;;;;11.88;7.97;;;8.40;84.80;;;;;;5154833;27;20106;-69
2020/12/02 00:47:21;;;;;;;14.35;8.98;;;8.40;84.70;;;;;;5154670;27;20366;-69
2020/12/02 00:49:49;;;;;;;13.68;8.23;;;8.40;84.70;;;;;;5154591;27;20034;-69
2020/12/02 00:52:15;;;;;;;12.43;8.65;;;8.40;84.70;;;;;;5135924;27;20046;-69
2020/12/02 00:54:41;;;;;;;11.45;8.10;;;8.50;84.70;;;;;;5154456;27;20022;-69
2020/12/02 00:57:08;;;;;;;15.48;10.00;;;8.50;84.70;;;;;;5135806;27;20049;-69
2020/12/02 00:59:37;;;;;;;13.57;8.68;;;8.50;84.50;;;;;;5135601;27;20373;-69
2020/12/02 01:02:40;;;;;;;13.40;9.05;;;8.50;84.50;;;;;;5135960;27;20018;-69
2020/12/02 01:05:13;;;;;;;12.98;8.90;;;8.40;84.60;;;;;;5154343;27;20027;-69
2020/12/02 01:07:43;;;;;;;;;;;8.40;84.60;;;;;;5135424;27;20410;-69
2020/12/02 01:10:10;;;;;;;13.15;8.82;;;8.40;84.70;;;;;;5154200;27;19911;-69
2020/12/02 01:12:37;;;;;;;12.38;8.45;;;8.30;84.60;;;;;;5154020;27;20027;-69
2020/12/02 01:15:08;;;;;;;15.15;9.00;;;8.30;84.70;;;;;;5154347;27;20035;-68
2020/12/02 01:17:34;;;;;;;14.07;8.43;;;8.30;84.80;;;;;;5135642;27;20061;-69
2020/12/02 01:20:00;;;;;;;14.68;8.65;;;8.30;84.90;;;;;;5153985;27;20026;-69
2020/12/02 01:22:33;;;;;;;12.85;8.38;;;8.30;84.80;;;;;;5134954;27;20096;-69
2020/12/02 01:25:19;;;;;;;;;;;8.30;84.80;;;;;;5135698;27;20030;-69
2020/12/02 01:27:50;;;;;;;13.40;8.00;;;8.40;84.90;;;;;;5135083;27;19907;-69
2020/12/02 01:30:18;;;;;;;12.43;7.90;;;8.40;84.70;;;;;;5135144;27;20077;-69
2020/12/02 01:32:45;;;;;;;13.27;8.23;;;8.40;84.80;;;;;;5153696;27;20031;-69
2020/12/02 01:35:14;;;;;;;14.82;9.50;;;8.40;84.70;;;;;;5153788;27;20035;-69
2020/12/02 01:37:41;;;;;;;15.15;8.95;;;8.50;84.80;;;;;;5135043;27;20106;-69
2020/12/02 01:40:12;;;;;;;13.90;8.82;;;8.50;84.70;;;;;;5135188;27;20170;-69
2020/12/02 01:42:40;;;;;;;14.65;9.48;;;8.50;84.60;;;;;;5153492;27;20022;-69
2020/12/02 01:45:16;;;;;;;15.10;9.23;;;8.60;84.70;;;;;;5153639;27;20031;-69
2020/12/02 01:48:09;;;;;;;15.63;9.38;;;8.60;84.60;;;;;;5135564;27;20117;-69
2020/12/02 01:50:42;;;;;;;17.40;9.85;;;8.60;84.50;;;;;;5153535;27;20027;-69
2020/12/02 01:53:24;;;;;;;18.38;9.80;;;8.60;84.60;;;;;;5134950;27;20537;-69
2020/12/02 01:56:00;;;;;;;14.52;9.00;;;8.60;84.50;;;;;;5134798;27;20087;-69
2020/12/02 01:58:56;;;;;;;16.17;9.73;;;8.50;84.50;;;;;;5134833;27;20064;-69
2020/12/02 02:01:38;;;;;;;15.35;9.60;;;8.60;84.60;;;;;;5134545;27;20043;-68
2020/12/02 02:04:06;;;;;;;16.92;10.27;;;8.50;84.50;;;;;;5153385;27;20142;-69
2020/12/02 02:07:01;;;;;;;15.63;9.48;;;8.50;84.50;;;;;;5153722;27;20043;-68
2020/12/02 02:09:27;;;;;;;16.08;9.48;;;8.60;84.50;;;;;;5125739;27;20027;-69
2020/12/02 02:12:18;;;;;;;16.20;10.05;;;8.60;84.50;;;;;;5153480;27;20018;-69
2020/12/02 02:14:58;;;;;;;17.88;10.40;;;8.60;84.40;;;;;;5152891;27;20092;-69
2020/12/02 02:17:24;;;;;;;14.93;8.90;;;8.60;84.40;;;;;;5153412;27;20038;-69
2020/12/02 02:19:50;;;;;;;15.23;8.90;;;8.50;84.40;;;;;;5137069;27;20018;-69
2020/12/02 02:22:16;;;;;;;16.35;9.63;;;8.50;84.40;;;;;;5138443;27;20046;-69
2020/12/02 02:24:42;;;;;;;14.90;9.35;;;8.60;84.40;;;;;;5138713;27;20049;-69
2020/12/02 02:27:08;;;;;;;14.88;9.25;;;8.50;84.30;;;;;;5157534;27;20473;-69
2020/12/02 02:29:37;;;;;;;14.48;9.00;;;8.50;84.30;;;;;;5157350;27;20030;-68
2020/12/02 02:32:20;;;;;;;16.55;9.63;;;8.50;84.40;;;;;;5157232;27;20031;-69
2020/12/02 02:34:49;;;;;;;15.52;9.43;;;8.50;84.50;;;;;;5138369;27;20370;-68
2020/12/02 02:37:17;;;;;;;18.42;10.25;;;8.50;84.50;;;;;;5156984;27;20030;-70
2020/12/02 02:39:44;;;;;;;15.80;9.82;;;8.50;84.30;;;;;;5156998;27;20087;-69
2020/12/02 02:42:36;;;;;;;17.65;10.13;;;8.50;84.30;;;;;;5156953;27;20035;-69
2020/12/02 02:45:17;;;;;;;16.92;9.63;;;8.50;84.30;;;;;;5138353;27;20042;-69
2020/12/02 02:47:44;;;;;;;16.40;9.50;;;8.50;84.30;;;;;;5138152;27;20038;-69
2020/12/02 02:50:12;;;;;;;16.23;9.20;;;8.50;84.30;;;;;;5137950;27;20030;-69
2020/12/02 02:52:42;;;;;;;15.52;9.55;;;8.50;84.30;;;;;;5156752;27;20113;-69
2020/12/02 02:55:12;;;;;;;15.90;9.98;;;8.60;84.30;;;;;;5137996;27;20027;-69
2020/12/02 02:57:39;;;;;;;17.60;10.70;;;8.50;84.30;;;;;;5137859;27;20030;-69
2020/12/02 03:00:07;;;;;;;18.38;10.45;;;8.50;84.20;;;;;;5156490;27;20034;-69
2020/12/02 03:02:33;;;;;;;18.00;10.50;;;8.50;84.30;;;;;;5137590;27;20027;-69
2020/12/02 03:04:59;;;;;;;15.00;9.27;;;8.40;84.30;;;;;;5156506;27;20087;-69
2020/12/02 03:07:25;;;;;;;16.45;9.82;;;8.40;84.40;;;;;;5137648;27;20031;-68
2020/12/02 03:09:50;;;;;;;17.52;10.15;;;8.40;84.40;;;;;;5156587;27;20049;-69
2020/12/02 03:12:16;;;;;;;17.98;10.27;;;8.40;84.40;;;;;;5156368;27;20038;-69
2020/12/02 03:14:42;;;;;;;15.25;9.32;;;8.40;84.50;;;;;;5137693;27;20863;-69
2020/12/02 03:17:16;;;;;;;16.35;9.35;;;8.40;84.50;;;;;;5156237;27;20034;-69
2020/12/02 03:19:49;;;;;;;15.43;9.85;;;8.30;84.40;;;;;;5137576;27;20026;-69
2020/12/02 03:22:16;;;;;;;16.48;10.18;;;8.40;84.50;;;;;;5137276;27;20505;-68
2020/12/02 03:24:43;;;;;;;16.30;10.10;;;8.40;84.40;;;;;;5156360;27;20113;-68
2020/12/02 03:27:09;;;;;;;17.02;10.05;;;8.40;84.40;;;;;;5137387;27;20031;-68
2020/12/02 03:29:35;;;;;;;14.02;8.85;;;8.40;84.30;;;;;;5155997;27;20031;-69
2020/12/02 03:32:01;;;;;;;14.60;9.18;;;8.40;84.30;;;;;;5155514;27;20471;-69
2020/12/02 03:34:27;;;;;;;15.18;9.15;;;8.40;84.30;;;;;;5137590;27;20091;-69
2020/12/02 03:36:52;;;;;;;15.98;9.27;;;8.40;84.30;;;;;;5156487;27;20469;-68
2020/12/02 03:39:18;;;;;;;15.77;9.95;;;8.50;84.30;;;;;;5156020;27;20026;-69
2020/12/02 03:41:44;;;;;;;13.60;8.90;;;8.50;84.30;;;;;;5156307;27;20041;-68
2020/12/02 03:44:11;;;;;;;17.02;10.15;;;8.50;84.30;;;;;;5137481;27;20050;-69
2020/12/02 03:46:38;;;;;;;16.13;9.27;;;8.50;84.30;;;;;;5156029;27;20026;-69
2020/12/02 03:49:04;;;;;;;12.07;8.35;;;8.50;84.30;;;;;;5155883;27;20035;-69
2020/12/02 03:51:32;;;;;;;15.77;9.70;;;8.40;84.20;;;;;;5137084;27;20082;-68
2020/12/02 03:53:57;;;;;;;19.08;9.68;;;8.40;84.30;;;;;;5137001;27;20031;-68
2020/12/02 03:56:24;;;;;;;14.98;9.80;;;8.40;84.20;;;;;;5136913;27;20045;-69
2020/12/02 03:58:50;;;;;;;17.45;9.93;;;8.40;84.30;;;;;;5137063;27;20029;-69
2020/12/02 04:01:16;;;;;;;14.90;9.07;;;8.40;84.30;;;;;;5155802;27;20436;-69
2020/12/02 04:03:43;;;;;;;15.65;8.98;;;8.50;84.30;;;;;;5136704;27;20492;-69
2020/12/02 04:06:09;;;;;;;16.73;8.98;;;8.50;84.30;;;;;;5136768;27;20061;-68
2020/12/02 04:08:39;;;;;;;15.75;9.35;;;8.50;84.20;;;;;;5155601;27;20045;-68
2020/12/02 04:11:05;;;;;;;15.93;9.35;;;8.50;84.20;;;;;;5155790;27;20058;-69
2020/12/02 04:13:31;;;;;;;15.00;8.63;;;8.50;84.30;;;;;;5136604;27;20019;-68
2020/12/02 04:15:57;;;;;;;12.80;8.00;;;8.50;84.40;;;;;;5136507;27;20022;-68
2020/12/02 04:18:23;;;;;;;16.30;9.98;;;8.50;84.30;;;;;;5155352;27;20022;-69
2020/12/02 04:20:49;;;;;;;19.80;10.90;;;8.50;84.30;;;;;;5155415;27;20027;-69
2020/12/02 04:23:15;;;;;;;16.98;9.25;;;8.50;84.20;;;;;;5154698;27;20044;-69
2020/12/02 04:25:40;;;;;;;17.30;8.95;;;8.50;84.20;;;;;;5154889;27;20444;-69
2020/12/02 04:28:06;;;;;;;16.05;9.15;;;8.40;84.30;;;;;;5154840;27;20046;-69
2020/12/02 04:30:32;;;;;;;15.15;9.38;;;8.40;84.40;;;;;;5136258;27;20469;-69
2020/12/02 04:32:58;;;;;;;14.27;9.10;;;8.40;84.40;;;;;;5154884;27;20023;-68
2020/12/02 04:35:24;;;;;;;16.35;9.27;;;8.40;84.40;;;;;;5154976;27;20099;-68
2020/12/02 04:37:50;;;;;;;18.10;9.68;;;8.40;84.40;;;;;;5136046;27;20071;-68
2020/12/02 04:40:30;;;;;;;15.18;8.95;;;8.40;84.40;;;;;;5155017;27;20025;-69
2020/12/02 04:43:21;;;;;;;16.13;8.85;;;8.40;84.40;;;;;;5153628;27;20458;-69
2020/12/02 04:45:48;;;;;;;16.58;8.88;;;8.40;84.40;;;;;;5153798;27;20062;-68
2020/12/02 04:48:21;;;;;;;15.75;8.85;;;8.40;84.50;;;;;;5154712;27;20440;-68
2020/12/02 04:50:46;;;;;;;18.10;8.85;;;8.40;84.50;;;;;;5135703;27;20039;-69
2020/12/02 04:53:15;;;;;;;16.38;9.00;;;8.40;84.50;;;;;;5154794;27;20023;-69
2020/12/02 04:55:43;;;;;;;15.43;9.00;;;8.40;84.50;;;;;;5154732;27;20094;-69
2020/12/02 04:58:38;;;;;;;17.58;9.32;;;8.40;84.40;;;;;;5154627;27;20054;-68
2020/12/02 05:01:27;;;;;;;18.77;9.98;;;8.40;84.40;;;;;;5135012;27;20388;-69
2020/12/02 05:03:55;;;;;;;15.35;8.80;;;8.40;84.30;;;;;;5154918;27;20017;-68
2020/12/02 05:06:42;;;;;;;16.52;9.93;;;8.40;84.30;;;;;;5154394;27;20023;-69
2020/12/02 05:09:10;;;;;;;19.63;10.52;;;8.40;84.30;;;;;;5154183;27;20067;-69
2020/12/02 05:11:40;;;;;;;17.73;9.55;;;8.40;84.20;;;;;;5154323;27;20035;-68
2020/12/02 05:14:13;;;;;;;18.30;9.60;;;8.40;84.30;;;;;;5154704;27;20424;-69
2020/12/02 05:16:39;;;;;;;14.45;8.55;;;8.30;84.40;;;;;;5154065;27;20030;-68
2020/12/02 05:19:17;;;;;;;18.25;10.20;;;8.40;84.50;;;;;;5135562;27;20530;-69
2020/12/02 05:21:43;;;;;;;16.55;9.15;;;8.40;84.40;;;;;;5135369;27;20198;-68
2020/12/02 05:24:17;;;;;;;16.35;9.23;;;8.40;84.40;;;;;;5153794;27;20074;-69
2020/12/02 05:26:46;;;;;;;17.42;8.82;;;8.40;84.40;;;;;;5154056;27;20037;-69
2020/12/02 05:29:38;;;;;;;19.48;9.40;;;8.40;84.40;;;;;;5135231;27;20033;-69
2020/12/02 05:32:11;;;;;;;18.02;9.73;;;8.40;84.30;;;;;;5144503;27;20043;-68
2020/12/02 05:34:37;;;;;;;16.17;8.95;;;8.40;84.40;;;;;;5153743;27;20464;-69
2020/12/02 05:37:08;;;;;;;21.52;9.43;;;8.40;84.30;;;;;;5153812;27;20019;-69
2020/12/02 05:39:44;;;;;;;18.20;9.82;;;8.40;84.30;;;;;;5135112;27;20113;-69
2020/12/02 05:42:40;;;;;;;18.60;9.77;;;8.40;84.30;;;;;;5154041;27;20023;-69
2020/12/02 05:45:41;;;;;;;19.23;9.98;;;8.40;84.30;;;;;;5153749;27;20022;-70
2020/12/02 05:48:20;;;;;;;20.02;9.90;;;8.40;84.30;;;;;;5142550;27;20052;-69
2020/12/02 05:50:46;;;;;;;15.77;9.30;;;8.30;84.40;;;;;;5134791;27;20014;-69
2020/12/02 05:53:33;;;;;;;20.48;10.45;;;8.30;84.50;;;;;;5153621;27;20050;-69
2020/12/02 05:56:00;;;;;;;18.55;9.07;;;8.30;84.50;;;;;;5157951;27;20038;-69
2020/12/02 05:58:31;;;;;;;16.02;8.90;;;8.30;84.60;;;;;;5139056;27;20078;-69
2020/12/02 06:00:58;;;;;;;18.23;8.77;;;8.30;84.50;;;;;;5157765;27;20097;-69
2020/12/02 06:03:32;;;;;;;17.05;9.02;;;8.30;84.50;;;;;;5138806;27;20014;-68
2020/12/02 06:06:03;;;;;;;17.13;8.88;;;8.30;85.10;;;;;;5139141;27;20157;-68
2020/12/02 06:08:44;;;;;;;17.90;8.95;;;8.30;84.50;;;;;;5157748;27;20023;-69
2020/12/02 06:11:15;;;;;;;16.70;8.85;;;8.30;84.60;;;;;;5157408;27;20050;-69
2020/12/02 06:13:55;;;;;;;15.48;8.77;;;8.30;84.60;;;;;;5138817;27;20026;-69
2020/12/02 06:16:41;;;;;;;15.63;8.80;;;8.30;84.60;;;;;;5157403;27;20025;-69
2020/12/02 06:19:50;;;;;;;15.52;8.35;;;8.30;84.70;;;;;;5157350;27;20019;-69
2020/12/02 06:22:42;;;;;;;13.73;7.60;;;8.30;84.70;;;;;;5146382;27;20438;-68
2020/12/02 06:25:39;;;;;;;16.27;8.40;;;8.20;84.70;;;;;;5157867;27;20102;-69
2020/12/02 06:28:05;;;;;;;16.80;8.48;;;8.20;84.80;;;;;;5138558;27;20068;-70
2020/12/02 06:30:31;;;;;;;14.80;8.20;;;8.20;84.90;;;;;;5138377;27;20046;-69
2020/12/02 06:32:59;;;;;;;15.02;8.48;;;8.20;84.90;;;;;;5157345;27;20508;-69
2020/12/02 06:35:25;;;;;;;15.90;8.27;;;8.20;85.00;;;;;;5138249;27;20080;-69
2020/12/02 06:38:24;;;;;;;15.63;8.65;;;8.30;85.10;;;;;;5157225;27;20472;-69
2020/12/02 06:41:42;;;;;;;17.42;8.85;;;8.30;85.00;;;;;;5138234;27;20026;-69
2020/12/02 06:44:13;;;;;;;15.15;7.55;;;8.30;84.90;;;;;;5072716;28;20112;-69
2020/12/02 06:46:53;;;;;;;14.05;7.85;;;8.30;84.90;;;;;;5124330;27;20038;-69
2020/12/02 06:49:19;;;;;;;15.65;8.10;;;8.30;84.90;;;;;;5156775;27;20026;-70
2020/12/02 06:52:00;;;;;;;14.30;7.55;;;8.30;84.80;;;;;;5138048;27;20083;-69
2020/12/02 06:54:31;;;;;;;12.60;7.93;;;8.30;84.90;;;;;;5156781;27;20381;-69
2020/12/02 06:57:04;;;;;;;19.25;8.55;;;8.30;84.90;;;;;;5157001;27;20102;-69
2020/12/02 06:59:29;;;;;;;13.95;8.10;;;8.30;84.90;;;;;;5156732;27;20038;-69
2020/12/02 07:02:04;;;;;;;15.07;8.07;;;8.30;84.90;;;;;;5157067;27;20374;-69
2020/12/02 07:04:35;;;;;;;14.50;7.80;;;8.20;84.90;;;;;;5156656;27;20530;-69
2020/12/02 07:07:01;;;;;;;13.68;7.90;;;8.20;85.00;;;;;;5136894;27;20034;-69
2020/12/02 07:09:26;;;;;;;13.85;7.68;;;8.10;85.10;;;;;;5156480;27;20110;-69
2020/12/02 07:12:20;;;;;;;14.80;7.78;;;8.10;85.10;;;;;;5137919;27;20031;-69
2020/12/02 07:14:47;;;;;;;13.88;7.53;;;8.20;85.20;;;;;;5153359;27;20081;-69
2020/12/02 07:17:14;;;;;;;12.65;7.90;;;8.20;85.10;;;;;;5156644;27;20039;-69
2020/12/02 07:19:44;;;;;;;13.90;7.65;;;8.20;85.10;;;;;;5156331;27;20386;-69
2020/12/02 07:22:18;;;;;;;16.45;8.20;;;8.20;85.10;;;;;;5137330;27;20552;-69
2020/12/02 07:24:47;;;;;;;13.65;7.88;;;8.20;84.90;;;;;;5156827;27;20026;-69
2020/12/02 07:27:15;;;;;;;14.27;8.38;;;8.20;85.00;;;;;;5156209;27;20027;-70
2020/12/02 07:29:40;;;;;;;13.30;7.55;;;8.20;85.00;;;;;;5137572;27;20023;-68
2020/12/02 07:32:14;;;;;;;14.52;7.88;;;8.20;85.20;;;;;;5137626;27;20018;-69
2020/12/02 07:34:40;;;;;;;13.88;6.97;;;8.10;85.10;;;;;;5156124;27;20110;-69
2020/12/02 07:37:12;;;;;;;11.02;6.28;;;8.10;85.10;;;;;;5156263;27;20059;-70
2020/12/02 07:39:57;;;;;;;13.63;7.03;;;8.10;85.10;;;;;;5155541;27;20031;-69
2020/12/02 07:42:29;;;;;;;11.95;6.63;;;8.10;85.10;;;;;;5136749;27;20038;-68
2020/12/02 07:45:13;;;;;;;12.00;7.32;;;8.10;85.10;;;;;;5155970;27;20079;-68
2020/12/02 07:47:40;;;;;;;12.43;6.57;;;8.10;85.00;;;;;;5155900;27;20042;-68
2020/12/02 07:50:29;;;;;;;12.15;6.90;;;8.20;85.10;;;;;;5155709;27;20105;-68
2020/12/02 07:53:12;;;;;;;11.98;6.78;;;8.10;84.90;;;;;;5155547;27;20029;-68
2020/12/02 07:55:42;;;;;;;13.93;6.72;;;8.10;84.90;;;;;;5155394;27;20417;-68
2020/12/02 07:58:32;;;;;;;12.25;6.65;;;8.20;84.90;;;;;;5136675;27;20265;-68
2020/12/02 08:01:15;;;;;;;12.50;7.22;;;8.20;84.90;;;;;;5155393;27;20031;-68
2020/12/02 08:03:42;;;;;;;13.35;6.97;;;8.20;84.80;;;;;;5155185;27;20187;-70
2020/12/02 08:06:32;;;;;;;14.93;7.38;;;8.20;84.80;;;;;;5136615;27;20034;-69
2020/12/02 08:08:57;;;;;;;13.07;7.38;;;8.20;84.80;;;;;;5136436;27;20400;-69
2020/12/02 08:11:23;;;;;;;12.38;6.75;;;8.30;84.90;;;;;;5155221;27;20062;-69
2020/12/02 08:13:58;;;;;;;11.38;6.40;;;8.30;84.90;;;;;;5155635;27;20027;-69
2020/12/02 08:16:44;;;;;;;11.82;6.20;;;8.30;84.80;;;;;;5154896;27;20037;-69
2020/12/02 08:19:11;;;;;;;11.73;6.68;;;8.40;84.70;;;;;;5135911;27;20398;-69
2020/12/02 08:21:39;;;;;;;12.00;6.68;;;8.40;84.60;;;;;;5136500;27;20497;-68
2020/12/02 08:24:10;;;;;;;12.10;6.82;;;8.40;84.60;;;;;;5136192;27;20034;-69
2020/12/02 08:26:36;;;;;;;8.73;6.50;;;8.40;84.60;;;;;;5155015;27;20030;-68
2020/12/02 08:29:06;;;;;;;10.75;6.45;;;8.40;84.50;;;;;;5154922;27;20023;-69
2020/12/02 08:31:32;;;;;;;10.73;6.55;;;8.30;84.40;;;;;;5136510;27;20079;-69
2020/12/02 08:34:32;;;;;;;10.25;6.30;;;8.30;84.40;;;;;;5155081;27;20105;-69
2020/12/02 08:37:24;;;;;;;12.10;6.22;;;8.30;84.30;;;;;;5110064;27;20035;-69
2020/12/02 08:39:55;;;;;;;11.38;6.22;;;8.30;84.30;;;;;;5155158;27;20023;-69
2020/12/02 08:42:31;;;;;;;11.13;6.65;;;8.30;84.30;;;;;;5154610;27;20453;-69
2020/12/02 08:45:15;;;;;;;10.18;6.32;;;8.30;84.30;;;;;;5154809;27;20030;-69
2020/12/02 08:47:41;;;;;;;14.45;6.80;;;8.20;84.30;;;;;;5136479;27;20086;-69
2020/12/02 08:50:16;;;;;;;12.95;6.63;;;8.20;84.40;;;;;;5136057;27;20435;-69
2020/12/02 08:52:50;;;;;;;10.93;6.20;;;8.20;84.40;;;;;;5154620;27;20193;-69
2020/12/02 08:55:15;;;;;;;;;;;8.20;84.30;;;;;;5155074;27;20026;-69
2020/12/02 08:57:41;;;;;;;12.10;5.68;;;8.30;84.40;;;;;;5154512;27;20303;-69
2020/12/02 09:00:06;;;;;;;15.68;5.88;;;8.20;84.30;;;;;;5136045;27;20027;-69
2020/12/02 09:02:32;;;;;;;12.00;6.68;;;8.20;84.30;;;;;;5154480;27;20022;-69
2020/12/02 09:04:58;;;;;;;8.82;5.82;;;8.30;84.40;;;;;;5154675;27;20037;-69
2020/12/02 09:07:24;;;;;;;10.52;6.25;;;8.30;84.30;;;;;;5135815;27;20031;-69
2020/12/02 09:09:49;;;;;;;11.77;6.18;;;8.30;84.20;;;;;;5155021;27;20019;-69
2020/12/02 09:12:15;;;;;;;9.65;6.30;;;8.30;84.20;;;;;;5135763;27;20030;-69
2020/12/02 09:14:41;;;;;;;12.65;6.70;;;8.30;84.10;;;;;;5135590;27;20030;-69
2020/12/02 09:17:06;;;;;;;12.40;6.70;;;8.30;84.10;;;;;;5135506;27;20022;-69
2020/12/02 09:19:32;;;;;;;12.02;6.28;;;8.40;84.10;;;;;;5135670;27;20025;-69
2020/12/02 09:21:58;;;;;;;11.55;6.38;;;8.40;84.10;;;;;;5154429;27;20450;-69
2020/12/02 09:24:23;;;;;;;11.95;6.65;;;8.40;84.10;;;;;;5153990;27;20050;-69
2020/12/02 09:26:49;;;;;;;12.27;6.90;;;8.40;84.10;;;;;;5153903;27;20065;-69
2020/12/02 09:29:15;;;;;;;10.20;5.80;;;8.40;84.00;;;;;;5153548;27;20456;-69
2020/12/02 09:31:42;;;;;;;12.05;6.03;;;8.50;84.00;;;;;;5153742;27;20023;-69
2020/12/02 09:34:08;;;;;;;10.77;5.80;;;8.40;83.80;;;;;;5153946;27;20050;-69
2020/12/02 09:36:35;;;;;;;12.93;6.28;;;8.50;83.80;;;;;;5153842;27;20029;-69
2020/12/02 09:39:01;;;;;;;10.23;5.82;;;8.40;83.80;;;;;;5135325;27;20494;-69
2020/12/02 09:41:47;;;;;;;8.70;5.47;;;8.40;83.80;;;;;;5154033;27;20042;-69
2020/12/02 09:44:29;;;;;;;7.78;5.30;;;8.50;83.90;;;;;;5135020;27;20035;-69
2020/12/02 09:47:00;;;;;;;11.05;5.75;;;8.50;83.80;;;;;;5153933;27;20023;-69
2020/12/02 09:49:26;;;;;;;8.10;5.50;;;8.50;83.60;;;;;;5153772;27;20025;-69
2020/12/02 09:52:09;;;;;;;11.27;6.38;;;8.50;83.50;;;;;;5154019;27;20041;-69
2020/12/02 09:54:42;;;;;;;9.15;5.78;;;8.50;83.50;;;;;;5153839;27;20054;-71
2020/12/02 09:57:25;;;;;;;7.88;5.35;;;8.50;83.40;;;;;;5153849;27;20042;-69
2020/12/02 09:59:55;;;;;;;8.98;6.10;;;8.50;83.50;;;;;;5135204;27;20037;-69
2020/12/02 10:02:33;;;;;;;10.02;6.22;;;8.50;83.50;;;;;;5135088;27;20066;-69
2020/12/02 10:05:17;;;;;;;8.40;5.70;;;8.50;83.50;;;;;;5153947;27;20099;-70
2020/12/02 10:08:10;;;;;;;8.00;5.53;;;8.50;83.50;;;;;;5134848;27;20071;-69
2020/12/02 10:10:50;;;;;;;9.63;5.95;;;8.50;83.50;;;;;;5135051;27;20125;-69
2020/12/02 10:13:26;;;;;;;8.38;5.97;;;8.50;83.50;;;;;;5134946;27;20041;-69
2020/12/02 10:15:55;;;;;;;10.75;6.80;;;8.60;83.40;;;;;;5153548;27;20110;-69
2020/12/02 10:18:41;;;;;;;8.32;6.13;;;8.60;83.40;;;;;;5153888;27;20126;-69
2020/12/02 10:21:46;;;;;;;9.45;6.55;;;8.60;83.40;;;;;;5134948;27;20355;-69
2020/12/02 10:24:42;;;;;;;9.27;6.20;;;8.60;83.30;;;;;;5129275;27;20081;-68
2020/12/02 10:27:24;;;;;;;9.15;6.20;;;8.60;83.40;;;;;;5135183;27;20122;-68
2020/12/02 10:29:50;;;;;;;8.55;6.30;;;8.60;83.30;;;;;;5153690;27;20058;-68
2020/12/02 10:32:31;;;;;;;11.18;6.50;;;8.60;83.30;;;;;;5134710;27;20030;-70
2020/12/02 10:34:57;;;;;;;10.57;6.80;;;8.60;83.30;;;;;;5153505;27;20106;-68
2020/12/02 10:37:33;;;;;;;9.07;6.28;;;8.60;83.30;;;;;;5135127;27;20126;-68
2020/12/02 10:39:59;;;;;;;11.20;6.72;;;8.60;83.30;;;;;;5134759;27;20473;-68
2020/12/02 10:42:59;;;;;;;11.15;6.28;;;8.70;83.30;;;;;;5137426;27;20039;-68
2020/12/02 10:45:25;;;;;;;11.00;6.35;;;8.70;83.20;;;;;;5138415;27;20026;-68
2020/12/02 10:48:22;;;;;;;11.30;6.78;;;8.70;83.20;;;;;;5157016;27;20050;-69
2020/12/02 10:50:49;;;;;;;10.38;7.10;;;8.60;83.10;;;;;;5156902;27;20031;-67
2020/12/02 10:53:19;;;;;;;11.93;6.75;;;8.70;83.20;;;;;;5138387;27;20135;-67
2020/12/02 10:55:45;;;;;;;11.40;6.68;;;8.60;83.20;;;;;;5156776;27;20095;-67
2020/12/02 10:58:18;;;;;;;11.93;7.10;;;8.60;83.30;;;;;;5157147;27;20030;-68
2020/12/02 11:00:52;;;;;;;12.80;6.78;;;8.60;83.30;;;;;;5156677;27;20492;-68
2020/12/02 11:03:38;;;;;;;11.40;6.95;;;8.70;83.40;;;;;;5137909;27;20117;-68
2020/12/02 11:06:22;;;;;;;12.02;7.07;;;8.60;83.90;;;;;;5156536;27;20027;-68
2020/12/02 11:09:02;;;;;;;;;;;8.60;83.20;;;;;;5157294;27;20442;-68
2020/12/02 11:11:51;;;;;;;12.02;6.80;;;8.70;83.20;;;;;;5156511;27;19943;-68
2020/12/02 11:14:38;;;;;;;15.77;7.07;;;8.60;83.20;;;;;;5137868;27;20026;-68
2020/12/02 11:17:22;;;;;;;11.40;7.13;;;8.70;83.30;;;;;;5156354;27;20046;-68
2020/12/02 11:19:51;;;;;;;14.15;7.80;;;8.70;83.30;;;;;;5156737;27;20018;-68
2020/12/02 11:22:41;;;;;;;13.50;7.45;;;8.70;83.30;;;;;;5137526;27;20023;-68
2020/12/02 11:25:32;;;;;;;13.75;7.03;;;8.70;83.20;;;;;;5137615;27;20393;-68
2020/12/02 11:27:57;;;;;;;12.88;7.20;;;8.70;83.20;;;;;;5156806;27;20093;-68
2020/12/02 11:30:37;;;;;;;13.68;7.88;;;8.70;83.20;;;;;;5137685;27;20087;-68
2020/12/02 11:33:31;;;;;;;13.57;7.20;;;8.70;83.20;;;;;;5156329;27;20083;-68
2020/12/02 11:36:06;;;;;;;12.07;7.00;;;8.70;83.20;;;;;;5156093;27;20027;-68
2020/12/02 11:38:41;;;;;;;13.05;7.10;;;8.70;83.20;;;;;;5137349;27;20022;-68
2020/12/02 11:41:27;;;;;;;14.07;7.05;;;8.70;83.20;;;;;;5156197;27;20400;-68
2020/12/02 11:43:58;;;;;;;13.27;7.07;;;8.80;83.20;;;;;;5136967;27;20067;-68
2020/12/02 11:46:26;;;;;;;12.35;7.25;;;8.70;83.10;;;;;;5156304;27;20047;-68
2020/12/02 11:49:07;;;;;;;12.82;7.47;;;8.80;83.10;;;;;;5155777;27;20050;-68
2020/12/02 11:51:59;;;;;;;14.10;7.70;;;8.80;83.10;;;;;;5155170;27;20152;-68
2020/12/02 11:54:25;;;;;;;17.83;7.93;;;8.70;83.00;;;;;;5136804;27;20066;-70
2020/12/02 11:56:53;;;;;;;14.68;7.35;;;8.80;83.10;;;;;;5136960;27;20034;-68
2020/12/02 11:59:33;;;;;;;13.05;7.43;;;8.80;83.10;;;;;;5155683;27;20097;-68
2020/12/02 12:02:08;;;;;;;13.40;7.28;;;8.70;83.10;;;;;;5137007;27;20076;-68
2020/12/02 12:04:39;;;;;;;12.57;7.57;;;8.70;83.10;;;;;;5155373;27;20031;-68
2020/12/02 12:07:41;;;;;;;13.43;8.27;;;8.80;83.10;;;;;;5155775;27;20182;-68
2020/12/02 12:10:28;;;;;;;12.02;6.97;;;8.80;83.10;;;;;;5156411;27;20469;-70
2020/12/02 12:13:41;;;;;;;13.57;8.25;;;8.80;83.20;;;;;;5155313;27;20083;-68
2020/12/02 12:16:38;;;;;;;16.65;7.88;;;8.80;83.10;;;;;;5071090;28;20400;-69
2020/12/02 12:19:32;;;;;;;19.45;9.20;;;8.80;83.10;;;;;;5054280;28;20036;-68
2020/12/02 12:22:04;;;;;;;20.50;9.68;;;8.80;83.00;;;;;;5054416;28;20140;-68
2020/12/02 12:24:30;;;;;;;24.67;10.93;;;8.80;83.00;;;;;;5070737;28;20048;-68
2020/12/02 12:26:56;;;;;;;25.30;11.45;;;8.80;83.00;;;;;;5070766;28;20028;-68
2020/12/02 12:29:22;;;;;;;20.58;9.95;;;8.80;83.00;;;;;;5070667;28;20069;-68
2020/12/02 12:32:05;;;;;;;18.05;9.20;;;8.80;83.00;;;;;;5071211;28;20159;-68
2020/12/02 12:35:01;;;;;;;16.20;9.18;;;8.80;82.90;;;;;;5070753;28;20045;-68
2020/12/02 12:37:38;;;;;;;13.50;7.90;;;8.80;83.00;;;;;;5070683;28;20042;-68
2020/12/02 12:40:14;;;;;;;16.40;8.32;;;8.80;82.90;;;;;;5070806;28;20048;-68
2020/12/02 12:42:42;;;;;;;14.60;7.97;;;8.80;82.90;;;;;;5053395;28;20482;-68
2020/12/02 12:45:22;;;;;;;15.60;7.95;;;8.80;83.00;;;;;;5070700;28;20033;-68
2020/12/02 12:47:50;;;;;;;14.68;7.40;;;8.80;83.00;;;;;;5104692;28;20035;-68
2020/12/02 12:50:20;;;;;;;15.80;8.13;;;8.80;83.00;;;;;;5112497;28;20023;-68
2020/12/02 12:52:46;;;;;;;15.00;7.47;;;8.80;83.00;;;;;;5113230;28;20172;-68
2020/12/02 12:55:14;;;;;;;11.38;6.75;;;8.80;82.90;;;;;;5111743;28;20032;-68
2020/12/02 12:57:47;;;;;;;13.65;7.63;;;8.80;82.90;;;;;;5113288;28;20502;-68
2020/12/02 13:00:13;;;;;;;13.82;7.57;;;8.80;82.90;;;;;;5113384;28;20115;-68
2020/12/02 13:02:39;;;;;;;17.95;8.98;;;8.80;82.90;;;;;;5111676;28;20031;-68
2020/12/02 13:05:09;;;;;;;14.50;8.50;;;8.80;82.90;;;;;;5113107;28;20308;-68
2020/12/02 13:07:46;;;;;;;16.27;8.65;;;8.80;82.90;;;;;;5113058;28;20084;-68
2020/12/02 13:10:28;;;;;;;15.85;8.15;;;8.80;82.90;;;;;;5114911;28;20042;-68
2020/12/02 13:13:39;;;;;;;15.70;8.10;;;8.80;82.90;;;;;;5112829;28;20061;-68
2020/12/02 13:16:38;;;;;;;14.73;8.35;;;8.80;82.90;;;;;;5108398;28;20116;-68
2020/12/02 13:19:04;;;;;;;14.93;8.32;;;8.80;82.80;;;;;;5112564;28;20039;-68
2020/12/02 13:21:39;;;;;;;14.82;8.73;;;8.80;82.80;;;;;;5113983;28;20114;-69